Rejestracja

Wszystkie dane podawane są w czasie UTC za wyjątkiem miejsc gdzie jest jednoznacznie podane, że jest inaczej. Dane podawane w serwisie mają charakter informacyjny!!!
Informacje w sprawie dostępu do serwisu pod numerem tel. +48 261-828-138
Informacja dla żołnierzy i pracowników wojska: Prosimy o niezwłoczną zmianę adresu e-mail w profilu użytkownika na pocztę w domenie @ron.mil.pl

Aktualna Pogoda
 
Pogoda w Polsce
14°C Szczecin 11°C Suwałki 14°C Warszawa 12°C Poznan
13°C Opole 14°C Kraków 10°C Rzeszów
Więcej miast w Polsce

Pogoda w Europie
13°C Berlin 16°C Paryz 10°C Bruksela 12°C Oslo
13°C Praga 16°C Zagrzeb
Więcej miast w Europie

Metary wojskowe test
METAR EPCE 170230Z 30008KT 270V330 9999 BKN008 BKN037 13/12 Q1009 RMK 128 093 7/5=
METAR EPDA 170230Z 36008KT 310V030 9999 FEW020 SCT048 15/11 Q1010 RMK 154 075 3/2=
METAR EPDE 170230Z 26008KT 9999 SCT006 BKN013 BKN040 13/12 Q1010 RMK 133 092 7/3=
METAR EPIR 170200Z 25012KT CAVOK 13/12 Q1010 RMK 125 094 3/3=
METAR EPKS 170230Z 28009KT CAVOK 12/11 Q1012 RMK 121 090 1/1=
METAR EPLK 170200Z AUTO 26006KT 9999 FEW068/// 12/09 Q1011 RERA RMK 115 087 2/2=
METAR EPLY 170200Z 26004KT CAVOK 11/10 Q1010 RMK 111 090 2/2=
METAR EPMB 170200Z 28008KT 9999 SCT050 OVC080 13/13 Q1007 RMK 130 098 8/4=
METAR EPMI 170200Z 28006KT 9999 FEW045 12/11 Q1011 RMK 119 095 1/1=
METAR EPMM 170230Z 27009KT 9999 BKN005 OVC030 13/12 Q1009 RMK 132 095 8/5=
METAR EPOK 170230Z 29010KT 9999 FEW009 BKN015TCU 14/13 Q1008 RMK 137 088 6/1=
METAR EPPR 170230Z 28008KT 9999 SCT046 BKN095 14/11 Q1008 RMK 135 087 5/3=
METAR EPPW 170230Z 28006KT CAVOK 10/10 Q1011 RMK 101 096 0/0=
METAR EPSN 170230Z 27004KT 9999 SCT040 10/09 Q1011 RMK 102 094 3/3=
METAR EPTM 170200Z AUTO 27004KT ///033 ///037 ///057 13/10 Q1011 RMK 125 086 ///=


 

Prawa autorskie©2007 SSH SZ RP. Wszelkie prawa zastrzeżone.